White Mountain, AK

6:45 AM AKST on January 17, 2017 (GMT -0900)
Golovin

Weather History for PAGL - January, 2014

Change the Weather History Date:

Wednesday, January 29, 2014

  Actual Average Record
Temperature  
Mean Temperature 36 °F -  
Max Temperature 39 °F - - ()
Min Temperature 33 °F - - ()
Degree Days  
Heating Degree Days 29    
Moisture  
Dew Point 27 °F    
Average Humidity 68    
Maximum Humidity 75    
Minimum Humidity 60    
Precipitation  
Precipitation 0.00 in - - ()
Sea Level Pressure  
Sea Level Pressure 29.88 in    
Wind  
Wind Speed 19 mph (ESE)    
Max Wind Speed 25 mph    
Max Gust Speed 32 mph    
Visibility 10 miles    
Events      
Averages and records for this station are not official NWS values.
T = Trace of Precipitation, MM = Missing Value Source: NWS Daily Summary

Daily Weather History Graph

Daily Weather History Graph

Search for Another Location

Airport or City:

Trip Planner

Search our weather history database for the weather conditions in past years. The results will help you decide how hot, cold, wet, or windy it might be!

Date:

Astronomy

Jan. 29, 2014 Rise Set
Actual Time 10:44 AM AKST 5:27 PM AKST
Civil Twilight 9:44 AM AKST 6:27 PM AKST
Nautical Twilight 8:43 AM AKST 7:28 PM AKST
Astronomical Twilight 7:47 AM AKST 8:24 PM AKST
Moon 9:31 AM AKST (1/29) 4:47 PM AKST (1/29)
Length of Visible Light 8h 42m
Length of Day
6h 43m
Waning Crescent, 2% of the Moon is Illuminated
Jan 29
Waning Crescent
Jan 30
New
Feb 6
First Quarter
Feb 14
Full
Feb 22
Last Quarter

Hourly Weather History & Observations

Time (AKST) Temp. Windchill Dew Point Humidity Pressure Visibility Wind Dir Wind Speed Gust Speed Precip Events Conditions
12:16 AM 39.2 °F 29.6 °F 28.4 °F 65% 29.83 in 10.0 mi East 19.6 mph - N/A   Clear
12:36 AM 39.2 °F 30.2 °F 28.4 °F 65% 29.84 in 10.0 mi East 17.3 mph - N/A   Clear
12:56 AM 39.2 °F 30.8 °F 28.4 °F 65% 29.84 in 10.0 mi East 15.0 mph 21.9 mph N/A   Clear
1:16 AM 39.2 °F 29.6 °F 30.2 °F 70% 29.83 in 10.0 mi East 19.6 mph - N/A   Clear
1:36 AM 37.4 °F 27.5 °F 30.2 °F 75% 29.84 in 10.0 mi East 18.4 mph - N/A   Clear
1:56 AM 37.4 °F 27.2 °F 30.2 °F 75% 29.84 in 10.0 mi East 19.6 mph - N/A   Clear
2:16 AM 37.4 °F 27.2 °F 28.4 °F 70% 29.84 in 10.0 mi East 19.6 mph 26.5 mph N/A   Clear
2:36 AM 37.4 °F 27.2 °F 28.4 °F 70% 29.84 in 10.0 mi East 19.6 mph - N/A   Clear
2:56 AM 37.4 °F 27.2 °F 30.2 °F 75% 29.84 in 10.0 mi East 19.6 mph - N/A   Clear
3:16 AM 37.4 °F 26.6 °F 30.2 °F 75% 29.83 in 10.0 mi East 21.9 mph 27.6 mph N/A   Clear
3:36 AM 37.4 °F 26.6 °F 30.2 °F 75% 29.84 in 10.0 mi East 21.9 mph - N/A   Clear
3:56 AM 37.4 °F 26.6 °F 30.2 °F 75% 29.84 in 10.0 mi East 21.9 mph - N/A   Clear
4:16 AM 37.4 °F 25.9 °F 30.2 °F 75% 29.84 in 10.0 mi ESE 25.3 mph 29.9 mph N/A   Clear
4:36 AM 39.2 °F 29.3 °F 28.4 °F 65% 29.85 in 10.0 mi East 20.7 mph - N/A   Clear
4:56 AM 39.2 °F 29.0 °F 28.4 °F 65% 29.85 in 10.0 mi East 21.9 mph 26.5 mph N/A   Clear
5:16 AM 37.4 °F 26.6 °F 28.4 °F 70% 29.85 in 10.0 mi East 21.9 mph 28.8 mph N/A   Clear
5:36 AM 37.4 °F 26.6 °F 28.4 °F 70% 29.84 in 10.0 mi East 21.9 mph 28.8 mph N/A   Clear
5:56 AM 37.4 °F 26.4 °F 28.4 °F 70% 29.84 in 10.0 mi East 23.0 mph 32.2 mph N/A   Clear
6:16 AM 37.4 °F 26.1 °F 28.4 °F 70% 29.84 in 10.0 mi East 24.2 mph 32.2 mph N/A   Clear
6:36 AM 37.4 °F 26.4 °F 28.4 °F 70% 29.85 in 10.0 mi East 23.0 mph 28.8 mph N/A   Clear
6:56 AM 37.4 °F 26.9 °F 28.4 °F 70% 29.85 in 10.0 mi East 20.7 mph - N/A   Clear
7:16 AM 37.4 °F 26.9 °F 28.4 °F 70% 29.86 in 10.0 mi East 20.7 mph - N/A   Partly Cloudy
7:36 AM 37.4 °F 26.9 °F 28.4 °F 70% 29.86 in 10.0 mi East 20.7 mph - N/A   Scattered Clouds
7:56 AM 37.4 °F 27.2 °F 28.4 °F 70% 29.86 in 10.0 mi East 19.6 mph - N/A   Mostly Cloudy
8:16 AM 37.4 °F 26.9 °F 28.4 °F 70% 29.86 in 10.0 mi East 20.7 mph 26.5 mph N/A   Overcast
8:36 AM 37.4 °F 26.9 °F 28.4 °F 70% 29.86 in 10.0 mi ESE 20.7 mph - N/A   Overcast
8:56 AM 35.6 °F 25.2 °F 28.4 °F 75% 29.86 in 10.0 mi ESE 18.4 mph - N/A   Scattered Clouds
9:16 AM 35.6 °F 25.2 °F 28.4 °F 75% 29.87 in 10.0 mi East 18.4 mph - N/A   Clear
9:36 AM 35.6 °F 25.2 °F 28.4 °F 75% 29.87 in 10.0 mi East 18.4 mph 23.0 mph N/A   Mostly Cloudy
9:56 AM 37.4 °F 27.2 °F 28.4 °F 70% 29.87 in 10.0 mi East 19.6 mph - N/A   Overcast
10:16 AM 37.4 °F 27.2 °F 28.4 °F 70% 29.87 in 10.0 mi East 19.6 mph - N/A   Overcast
10:36 AM 35.6 °F 25.2 °F 28.4 °F 75% 29.87 in 10.0 mi East 18.4 mph - N/A   Mostly Cloudy
10:56 AM 35.6 °F 25.2 °F 28.4 °F 75% 29.87 in 10.0 mi East 18.4 mph 25.3 mph N/A   Mostly Cloudy
11:16 AM 37.4 °F 26.9 °F 28.4 °F 70% 29.87 in 10.0 mi East 20.7 mph 26.5 mph N/A   Overcast
11:36 AM 37.4 °F 26.9 °F 28.4 °F 70% 29.87 in 10.0 mi East 20.7 mph - N/A   Overcast
11:56 AM 37.4 °F 27.8 °F 28.4 °F 70% 29.88 in 10.0 mi East 17.3 mph - N/A   Overcast
12:16 PM 37.4 °F 28.2 °F 28.4 °F 70% 29.89 in 10.0 mi East 16.1 mph - N/A   Overcast
12:36 PM 37.4 °F 26.9 °F 28.4 °F 70% 29.89 in 10.0 mi ESE 20.7 mph - N/A   Overcast
12:56 PM 37.4 °F 27.5 °F 26.6 °F 65% 29.89 in 10.0 mi ESE 18.4 mph - N/A   Overcast
1:16 PM 37.4 °F 27.2 °F 28.4 °F 70% 29.88 in 10.0 mi ESE 19.6 mph - N/A   Overcast
1:36 PM 39.2 °F 29.6 °F 28.4 °F 65% 29.88 in 10.0 mi ESE 19.6 mph - N/A   Partly Cloudy
1:56 PM 37.4 °F 27.8 °F 26.6 °F 65% 29.89 in 10.0 mi ESE 17.3 mph - N/A   Clear
2:16 PM 37.4 °F 28.5 °F 26.6 °F 65% 29.89 in 10.0 mi ESE 15.0 mph - N/A   Clear
2:36 PM 39.2 °F 30.8 °F 26.6 °F 61% 29.89 in 10.0 mi ESE 15.0 mph - N/A   Scattered Clouds
2:56 PM 39.2 °F 30.2 °F 26.6 °F 61% 29.89 in 10.0 mi ESE 17.3 mph - N/A   Mostly Cloudy
3:16 PM 37.4 °F 27.8 °F 26.6 °F 65% 29.89 in 10.0 mi ESE 17.3 mph - N/A   Partly Cloudy
3:36 PM 37.4 °F 27.5 °F 26.6 °F 65% 29.89 in 10.0 mi East 18.4 mph 21.9 mph N/A   Clear
3:56 PM 37.4 °F 27.8 °F 26.6 °F 65% 29.89 in 10.0 mi ESE 17.3 mph - N/A   Clear
4:16 PM 37.4 °F 27.8 °F 24.8 °F 60% 29.89 in 10.0 mi ESE 17.3 mph 24.2 mph N/A   Clear
4:36 PM 37.4 °F 26.9 °F 24.8 °F 60% 29.90 in 10.0 mi ESE 20.7 mph 25.3 mph N/A   Mostly Cloudy
4:56 PM 37.4 °F 26.9 °F 24.8 °F 60% 29.90 in 10.0 mi ESE 20.7 mph - N/A   Overcast
5:16 PM 37.4 °F 27.5 °F 24.8 °F 60% 29.90 in 10.0 mi ESE 18.4 mph 23.0 mph N/A   Overcast
5:36 PM 35.6 °F 24.8 °F 26.6 °F 70% 29.90 in 10.0 mi ESE 19.6 mph 24.2 mph N/A   Partly Cloudy
5:56 PM 35.6 °F 25.2 °F 24.8 °F 65% 29.90 in 10.0 mi ESE 18.4 mph 23.0 mph N/A   Clear
6:16 PM 35.6 °F 26.2 °F 24.8 °F 65% 29.91 in 10.0 mi ESE 15.0 mph - N/A   Clear
6:36 PM 35.6 °F 26.6 °F 24.8 °F 65% 29.91 in 10.0 mi ESE 13.8 mph - N/A   Clear
6:56 PM 35.6 °F 25.2 °F 24.8 °F 65% 29.91 in 10.0 mi ESE 18.4 mph - N/A   Clear
7:16 PM 35.6 °F 25.5 °F 24.8 °F 65% 29.92 in 10.0 mi ESE 17.3 mph - N/A   Mostly Cloudy
7:36 PM 35.6 °F 25.5 °F 24.8 °F 65% 29.92 in 10.0 mi ESE 17.3 mph - N/A   Overcast
7:56 PM 35.6 °F 24.8 °F 24.8 °F 65% 29.92 in 10.0 mi ESE 19.6 mph 24.2 mph N/A   Overcast
8:16 PM 35.6 °F 24.5 °F 24.8 °F 65% 29.92 in 10.0 mi ESE 20.7 mph 26.5 mph N/A   Overcast
8:36 PM 35.6 °F 25.2 °F 24.8 °F 65% 29.92 in 10.0 mi ESE 18.4 mph - N/A   Overcast
8:56 PM 35.6 °F 25.5 °F 24.8 °F 65% 29.93 in 10.0 mi ESE 17.3 mph 23.0 mph N/A   Overcast
9:16 PM 35.6 °F 24.2 °F 24.8 °F 65% 29.92 in 10.0 mi ESE 21.9 mph 27.6 mph N/A   Overcast
9:36 PM 35.6 °F 24.2 °F 24.8 °F 65% 29.92 in 10.0 mi ESE 21.9 mph 27.6 mph N/A   Overcast
9:56 PM 35.6 °F 24.5 °F 24.8 °F 65% 29.92 in 10.0 mi ESE 20.7 mph 24.2 mph N/A   Overcast
10:16 PM 35.6 °F 25.2 °F 24.8 °F 65% 29.92 in 10.0 mi ESE 18.4 mph - N/A   Overcast
10:36 PM 33.8 °F 23.2 °F 24.8 °F 70% 29.93 in 10.0 mi ESE 17.3 mph - N/A   Overcast
10:56 PM 33.8 °F 22.8 °F 24.8 °F 70% 29.93 in 10.0 mi ESE 18.4 mph - N/A   Overcast
11:16 PM 33.8 °F 22.8 °F 24.8 °F 70% 29.94 in 10.0 mi ESE 18.4 mph - N/A   Overcast
11:36 PM 33.8 °F 22.8 °F 24.8 °F 70% 29.94 in 10.0 mi ESE 18.4 mph - N/A   Overcast
11:56 PM 35.6 °F 25.9 °F 24.8 °F 65% 29.95 in 10.0 mi ESE 16.1 mph - N/A   Overcast